createdAt,value
2018-03-08T00:01:15.234Z,98808.62
2018-03-08T00:03:43.919Z,98807.80
2018-03-08T00:06:12.607Z,98797.02
2018-03-08T00:08:41.273Z,98796.98
2018-03-08T00:11:10.265Z,98788.78
2018-03-08T00:13:38.907Z,98778.62
2018-03-08T00:16:08.220Z,98775.54
2018-03-08T00:18:37.263Z,98776.07
2018-03-08T00:21:05.950Z,98774.88
2018-03-08T00:23:34.637Z,98768.27
2018-03-08T00:26:03.325Z,98759.45
2018-03-08T00:28:32.008Z,98761.44
2018-03-08T00:31:00.633Z,98750.30
2018-03-08T00:33:30.296Z,98750.85
2018-03-08T00:35:58.986Z,98748.54
2018-03-08T00:38:27.612Z,98750.79
2018-03-08T00:40:58.254Z,98742.42
2018-03-08T00:43:26.847Z,98741.60
2018-03-08T00:45:55.573Z,98740.76
2018-03-08T00:48:24.308Z,98736.10
2018-03-08T00:50:53.766Z,98731.27
2018-03-08T00:53:22.452Z,98727.72
2018-03-08T00:55:51.189Z,98732.88
2018-03-08T00:58:20.636Z,98729.79
2018-03-08T01:00:49.224Z,98735.31
2018-03-08T01:03:18.316Z,98729.43
2018-03-08T01:05:46.959Z,98731.66
2018-03-08T01:08:15.687Z,98743.27
2018-03-08T01:10:44.420Z,98756.08
2018-03-08T01:13:13.837Z,98751.92
2018-03-08T01:15:42.569Z,98755.39
2018-03-08T01:18:11.297Z,98754.41
2018-03-08T01:20:40.763Z,98747.80
2018-03-08T01:23:09.312Z,98751.46
2018-03-08T01:25:38.025Z,98745.86
2018-03-08T01:28:06.667Z,98743.12
2018-03-08T01:30:35.361Z,98743.77
2018-03-08T01:33:04.081Z,98738.16
2018-03-08T01:35:32.722Z,98736.28
2018-03-08T01:38:01.355Z,98736.48
2018-03-08T01:40:30.138Z,98735.23
2018-03-08T01:42:58.728Z,98733.95
2018-03-08T01:45:27.418Z,98738.16
2018-03-08T01:47:56.097Z,98737.11
2018-03-08T01:50:24.785Z,98728.79
2018-03-08T01:52:53.471Z,98724.00
2018-03-08T01:55:22.439Z,98719.28
2018-03-08T01:57:51.150Z,98715.01
2018-03-08T02:00:19.775Z,98710.73
2018-03-08T02:02:49.442Z,98716.03
2018-03-08T02:05:18.085Z,98706.68
2018-03-08T02:07:46.716Z,98707.52
2018-03-08T02:10:15.400Z,98705.30
2018-03-08T02:12:44.086Z,98705.34
2018-03-08T02:15:12.664Z,98699.03
2018-03-08T02:17:41.348Z,98701.58
2018-03-08T02:20:09.996Z,98698.62
2018-03-08T02:22:38.719Z,98694.69
2018-03-08T02:25:07.706Z,98700.27
2018-03-08T02:27:36.399Z,98695.70
2018-03-08T02:30:05.197Z,98695.33
2018-03-08T02:32:34.168Z,98692.93
2018-03-08T02:35:02.874Z,98694.79
2018-03-08T02:37:31.449Z,98690.86
2018-03-08T02:40:00.135Z,98691.56
2018-03-08T02:42:28.822Z,98688.48
2018-03-08T02:44:57.476Z,98687.77
2018-03-08T02:47:26.806Z,98683.48
2018-03-08T02:49:55.463Z,98680.23
2018-03-08T02:52:24.186Z,98677.92
2018-03-08T02:54:53.282Z,98678.94
2018-03-08T02:57:21.857Z,98677.66
2018-03-08T02:59:50.544Z,98674.63
2018-03-08T03:02:19.727Z,98675.92
2018-03-08T03:04:48.432Z,98678.72
2018-03-08T03:07:17.018Z,98675.52
2018-03-08T03:09:45.817Z,98677.16
2018-03-08T03:12:15.970Z,98675.98
2018-03-08T03:14:45.631Z,98671.08
2018-03-08T03:17:14.417Z,98670.05
2018-03-08T03:19:43.048Z,98668.66
2018-03-08T03:22:12.566Z,98665.38
2018-03-08T03:24:41.298Z,98668.34
2018-03-08T03:27:09.987Z,98664.81
2018-03-08T03:29:38.769Z,98659.06
2018-03-08T03:32:07.453Z,98650.88
2018-03-08T03:34:36.106Z,98647.44
2018-03-08T03:37:04.919Z,98648.80
2018-03-08T03:39:33.615Z,98644.75
2018-03-08T03:42:02.257Z,98646.69
2018-03-08T03:44:31.952Z,98642.08
2018-03-08T03:47:01.413Z,98639.55
2018-03-08T03:49:30.099Z,98641.88
2018-03-08T03:51:58.892Z,98639.77
2018-03-08T03:54:27.579Z,98637.06
2018-03-08T03:56:57.186Z,98630.33
2018-03-08T03:59:26.761Z,98626.48
2018-03-08T04:01:55.399Z,98631.16
2018-03-08T04:04:24.850Z,98631.61
2018-03-08T04:06:53.889Z,98617.86
2018-03-08T04:09:23.349Z,98619.49
2018-03-08T04:11:52.034Z,98628.41
2018-03-08T04:14:20.917Z,98625.02
2018-03-08T04:16:49.561Z,98620.61
2018-03-08T04:19:18.290Z,98615.13
2018-03-08T04:21:47.246Z,98613.14
2018-03-08T04:24:15.968Z,98612.81
2018-03-08T04:26:44.517Z,98612.34
2018-03-08T04:29:13.549Z,98620.23
2018-03-08T04:31:42.193Z,98624.19
2018-03-08T04:34:10.921Z,98623.55
2018-03-08T04:36:39.655Z,98631.64
2018-03-08T04:39:09.113Z,98627.89
2018-03-08T04:41:37.736Z,98619.72
2018-03-08T04:44:07.259Z,98615.69
2018-03-08T04:46:35.984Z,98620.16
2018-03-08T04:49:04.570Z,98615.58
2018-03-08T04:51:33.512Z,98611.88
2018-03-08T04:54:02.864Z,98614.67
2018-03-08T04:56:31.498Z,98609.23
2018-03-08T04:59:01.049Z,98617.20
2018-03-08T05:01:29.744Z,98623.97
2018-03-08T05:03:58.325Z,98625.58
2018-03-08T05:06:27.115Z,98628.47
2018-03-08T05:08:55.693Z,98622.75
2018-03-08T05:11:24.379Z,98633.06
2018-03-08T05:13:53.173Z,98630.38
2018-03-08T05:16:21.813Z,98632.80
2018-03-08T05:18:50.546Z,98628.98
2018-03-08T05:21:19.148Z,98631.42
2018-03-08T05:23:47.930Z,98632.59
2018-03-08T05:26:17.416Z,98639.39
2018-03-08T05:28:46.101Z,98644.99
2018-03-08T05:31:14.787Z,98643.30
2018-03-08T05:33:43.471Z,98645.42
2018-03-08T05:36:12.256Z,98649.92
2018-03-08T05:38:40.953Z,98656.04
2018-03-08T05:41:09.639Z,98653.84
2018-03-08T05:43:38.424Z,98658.16
2018-03-08T05:46:07.110Z,98647.48
2018-03-08T05:48:35.700Z,98646.75
2018-03-08T05:51:04.373Z,98643.74
2018-03-08T05:53:33.070Z,98633.53
2018-03-08T05:56:01.854Z,98639.18
2018-03-08T05:58:30.541Z,98645.05
2018-03-08T06:00:59.189Z,98642.73
2018-03-08T06:03:27.914Z,98649.38
2018-03-08T06:05:56.904Z,98647.03
2018-03-08T06:08:25.544Z,98651.87
2018-03-08T06:10:54.276Z,98645.17
2018-03-08T06:13:23.270Z,98639.67
2018-03-08T06:15:51.956Z,98645.31
2018-03-08T06:18:20.642Z,98642.78
2018-03-08T06:20:49.325Z,98647.81
2018-03-08T06:23:17.913Z,98646.53
2018-03-08T06:25:46.599Z,98647.16
2018-03-08T06:28:15.385Z,98645.88
2018-03-08T06:30:44.133Z,98650.80
2018-03-08T06:33:12.823Z,98653.38
2018-03-08T06:35:41.816Z,98646.28
2018-03-08T06:38:10.533Z,98638.25
2018-03-08T06:40:39.219Z,98643.06
2018-03-08T06:43:08.014Z,98636.77
2018-03-08T06:45:36.700Z,98640.77
2018-03-08T06:48:05.377Z,98640.60
2018-03-08T06:50:34.224Z,98639.04
2018-03-08T06:53:02.761Z,98641.00
2018-03-08T06:55:31.332Z,98632.41
2018-03-08T06:58:00.032Z,98629.73
2018-03-08T07:00:28.706Z,98628.97
2018-03-08T07:02:58.588Z,98614.81
2018-03-08T07:05:27.174Z,98619.96
2018-03-08T07:07:55.821Z,98605.31
2018-03-08T07:10:24.593Z,98597.98
2018-03-08T07:12:54.045Z,98598.68
2018-03-08T07:15:22.679Z,98600.69
2018-03-08T07:17:52.545Z,98604.05
2018-03-08T07:20:21.132Z,98606.63
2018-03-08T07:22:49.818Z,98614.56
2018-03-08T07:25:18.702Z,98612.45
2018-03-08T07:27:47.388Z,98617.20
2018-03-08T07:30:16.037Z,98614.61
2018-03-08T07:32:44.904Z,98613.17
2018-03-08T07:35:14.369Z,98610.03
2018-03-08T07:37:43.053Z,98607.08
2018-03-08T07:40:12.009Z,98602.38
2018-03-08T07:42:40.732Z,98609.67
2018-03-08T07:45:09.418Z,98602.91
2018-03-08T07:47:38.412Z,98592.58
2018-03-08T07:50:07.096Z,98594.08
2018-03-08T07:52:35.749Z,98591.17
2018-03-08T07:55:04.513Z,98586.55
2018-03-08T07:57:33.978Z,98594.52
2018-03-08T08:00:02.681Z,98593.15
2018-03-08T08:02:31.396Z,98578.13
2018-03-08T08:05:18.712Z,98571.38
2018-03-08T08:08:06.051Z,98570.59
2018-03-08T08:10:35.500Z,98575.52
2018-03-08T08:13:04.081Z,98583.33
2018-03-08T08:15:33.177Z,98595.73
2018-03-08T08:18:01.997Z,98592.38
2018-03-08T08:20:30.649Z,98586.56
2018-03-08T08:22:59.587Z,98589.34
2018-03-08T08:25:29.052Z,98585.68
2018-03-08T08:27:57.617Z,98583.14
2018-03-08T08:30:26.412Z,98586.70
2018-03-08T08:32:55.208Z,98591.86
2018-03-08T08:35:23.895Z,98592.97
2018-03-08T08:37:52.679Z,98595.86
2018-03-08T08:40:21.364Z,98594.39
2018-03-08T08:42:50.051Z,98591.87
2018-03-08T08:45:18.846Z,98595.20
2018-03-08T08:47:47.531Z,98589.45
2018-03-08T08:50:16.217Z,98589.83
2018-03-08T08:52:44.903Z,98586.78
2018-03-08T08:55:13.588Z,98594.15
2018-03-08T08:57:42.374Z,98589.72
2018-03-08T09:00:11.517Z,98590.50
2018-03-08T09:02:40.924Z,98586.70
2018-03-08T09:05:10.373Z,98583.11
2018-03-08T09:07:39.431Z,98590.43
2018-03-08T09:10:08.099Z,98590.36
2018-03-08T09:12:37.561Z,98592.83
2018-03-08T09:15:06.653Z,98595.11
2018-03-08T09:17:35.201Z,98591.64
2018-03-08T09:20:03.875Z,98589.70
2018-03-08T09:22:33.364Z,98591.14
2018-03-08T09:25:02.834Z,98593.23
2018-03-08T09:27:31.519Z,98589.82
2018-03-08T09:30:00.610Z,98591.40
2018-03-08T09:32:29.297Z,98588.05
2018-03-08T09:34:57.960Z,98584.45
2018-03-08T09:37:26.721Z,98584.57
2018-03-08T09:39:56.177Z,98583.27
2018-03-08T09:42:24.863Z,98577.80
2018-03-08T09:44:53.805Z,98570.84
2018-03-08T09:47:23.254Z,98577.17
2018-03-08T09:49:51.890Z,98567.69
2018-03-08T09:52:21.755Z,98561.47
2018-03-08T09:54:50.442Z,98551.93
2018-03-08T09:57:19.021Z,98556.89
2018-03-08T09:59:47.912Z,98555.73
2018-03-08T10:02:16.598Z,98559.71
2018-03-08T10:04:45.190Z,98558.86
2018-03-08T10:07:13.870Z,98554.64
2018-03-08T10:09:42.558Z,98550.28
2018-03-08T10:12:11.138Z,98562.08
2018-03-08T10:14:39.929Z,98553.52
2018-03-08T10:17:08.615Z,98544.09
2018-03-08T10:19:37.257Z,98555.82
2018-03-08T10:22:06.250Z,98550.91
2018-03-08T10:24:34.980Z,98556.52
2018-03-08T10:27:03.669Z,98556.52
2018-03-08T10:29:32.679Z,98553.50
2018-03-08T10:32:01.344Z,98552.24
2018-03-08T10:34:30.043Z,98553.55
2018-03-08T10:36:58.814Z,98547.64
2018-03-08T10:41:56.701Z,98545.48
2018-03-08T10:44:25.792Z,98546.78
2018-03-08T10:46:55.269Z,98547.84
2018-03-08T10:49:23.923Z,98548.13
2018-03-08T10:51:52.915Z,98543.30
2018-03-08T10:54:21.635Z,98542.56
2018-03-08T10:56:50.221Z,98548.27
2018-03-08T10:59:18.920Z,98554.18
2018-03-08T11:02:04.385Z,98548.03
2018-03-08T11:04:37.070Z,98556.89
2018-03-08T11:07:05.759Z,98551.20
2018-03-08T11:09:34.338Z,98549.28
2018-03-08T11:12:03.064Z,98546.78
2018-03-08T11:14:32.527Z,98547.03
2018-03-08T11:17:01.216Z,98553.09
2018-03-08T11:19:30.304Z,98542.61
2018-03-08T11:21:58.957Z,98542.30
2018-03-08T11:24:27.676Z,98543.85
2018-03-08T11:26:56.361Z,98542.20
2018-03-08T11:29:25.048Z,98543.22
2018-03-08T11:31:53.733Z,98547.97
2018-03-08T11:34:22.727Z,98546.20
2018-03-08T11:36:51.412Z,98551.81
2018-03-08T11:39:19.968Z,98552.98
2018-03-08T11:41:48.951Z,98558.19
2018-03-08T11:44:17.679Z,98566.08
2018-03-08T11:46:46.364Z,98560.95
2018-03-08T11:49:15.149Z,98573.41
2018-03-08T11:51:43.834Z,98571.80
2018-03-08T11:54:12.467Z,98566.13
2018-03-08T11:56:41.985Z,98569.70
2018-03-08T11:59:10.715Z,98575.19
2018-03-08T12:01:39.608Z,98563.32
2018-03-08T12:04:08.339Z,98574.51
2018-03-08T12:06:38.204Z,98575.98
2018-03-08T12:09:06.895Z,98569.83
2018-03-08T12:11:35.681Z,98578.41
2018-03-08T12:14:04.366Z,98579.03
2018-03-08T12:16:32.947Z,98576.35
2018-03-08T12:19:01.629Z,98571.53
2018-03-08T12:21:30.324Z,98581.77
2018-03-08T12:23:59.009Z,98588.73
2018-03-08T12:26:27.852Z,98589.46
2018-03-08T12:28:56.579Z,98593.92
2018-03-08T12:31:25.213Z,98590.74
2018-03-08T12:33:54.681Z,98593.53
2018-03-08T12:36:23.228Z,98595.84
2018-03-08T12:38:51.937Z,98594.82
2018-03-08T12:41:21.852Z,98595.66
2018-03-08T12:43:50.442Z,98600.78
2018-03-08T12:46:19.119Z,98601.22
2018-03-08T12:48:47.926Z,98605.63
2018-03-08T12:51:17.358Z,98608.60
2018-03-08T12:53:46.817Z,98607.22
2018-03-08T12:56:15.668Z,98611.83
2018-03-08T12:58:44.398Z,98615.89
2018-03-08T13:01:13.083Z,98620.63
2018-03-08T13:03:42.817Z,98622.73
2018-03-08T13:06:11.584Z,98631.64
2018-03-08T13:08:40.308Z,98634.60
2018-03-08T13:11:09.970Z,98636.12
2018-03-08T13:13:38.662Z,98638.84
2018-03-08T13:16:08.134Z,98644.95
2018-03-08T13:18:36.864Z,98648.00
2018-03-08T13:21:05.549Z,98656.00
2018-03-08T13:23:34.191Z,98664.10
2018-03-08T13:26:02.985Z,98665.99
2018-03-08T13:28:31.606Z,98663.95
2018-03-08T13:31:00.194Z,98673.42
2018-03-08T13:33:29.078Z,98671.75
2018-03-08T13:35:57.732Z,98680.60
2018-03-08T13:38:26.449Z,98681.66
2018-03-08T13:40:55.651Z,98679.91
2018-03-08T13:43:24.337Z,98684.02
2018-03-08T13:45:53.078Z,98686.77
2018-03-08T13:48:21.717Z,98694.70
2018-03-08T13:50:50.439Z,98695.03
2018-03-08T13:53:19.902Z,98697.51
2018-03-08T13:55:48.876Z,98698.92
2018-03-08T13:58:17.430Z,98709.30
2018-03-08T14:00:45.980Z,98713.73
2018-03-08T14:03:14.592Z,98709.05
2018-03-08T14:05:43.183Z,98713.36
2018-03-08T14:08:11.746Z,98717.69
2018-03-08T14:10:41.109Z,98722.20
2018-03-08T14:13:09.662Z,98727.91
2018-03-08T14:15:38.233Z,98730.06
2018-03-08T14:18:07.266Z,98738.27
2018-03-08T14:20:36.582Z,98737.22
2018-03-08T14:23:05.156Z,98744.05
2018-03-08T14:25:33.937Z,98757.23
2018-03-08T14:28:02.493Z,98758.84
2018-03-08T14:30:31.105Z,98770.33
2018-03-08T14:33:00.209Z,98777.69
2018-03-08T14:35:28.890Z,98779.06
2018-03-08T14:37:57.576Z,98784.27
2018-03-08T14:40:26.261Z,98788.13
2018-03-08T14:42:54.946Z,98793.67
2018-03-08T14:45:23.634Z,98801.23
2018-03-08T14:47:52.327Z,98802.75
2018-03-08T14:50:21.104Z,98811.92
2018-03-08T14:52:49.653Z,98811.16
2018-03-08T14:55:18.564Z,98813.82
2018-03-08T14:57:47.112Z,98820.37
2018-03-08T15:00:15.666Z,98821.95
2018-03-08T15:02:44.364Z,98829.20
2018-03-08T15:05:13.685Z,98834.13
2018-03-08T15:07:42.248Z,98842.92
2018-03-08T15:10:10.954Z,98852.12
2018-03-08T15:12:40.393Z,98857.87
2018-03-08T15:15:09.091Z,98867.05
2018-03-08T15:17:37.788Z,98873.19
2018-03-08T15:20:06.561Z,98879.27
2018-03-08T15:22:35.248Z,98881.66
2018-03-08T15:25:03.940Z,98885.52
2018-03-08T15:27:32.521Z,98890.77
2018-03-08T15:30:01.207Z,98895.84
2018-03-08T15:32:29.991Z,98900.27
2018-03-08T15:34:58.680Z,98908.61
2018-03-08T15:37:27.361Z,98914.07
2018-03-08T15:39:56.098Z,98927.59
2018-03-08T15:42:25.558Z,98927.09
2018-03-08T15:44:54.243Z,98940.21
2018-03-08T15:47:23.244Z,98936.51
2018-03-08T15:49:51.898Z,98947.13
2018-03-08T15:52:20.597Z,98951.44
2018-03-08T15:54:49.393Z,98963.45
2018-03-08T15:57:17.969Z,98973.77
2018-03-08T15:59:46.655Z,98980.18
2018-03-08T16:02:15.757Z,98987.25
2018-03-08T16:04:44.308Z,99000.40
2018-03-08T16:10:37.002Z,99009.89
2018-03-08T16:13:05.897Z,99016.02
2018-03-08T16:15:34.582Z,99021.31
2018-03-08T16:18:03.136Z,99035.48
2018-03-08T16:20:31.959Z,99045.83
2018-03-08T16:23:00.640Z,99051.45
2018-03-08T16:25:29.325Z,99049.49
2018-03-08T16:27:58.108Z,99047.93
2018-03-08T16:30:26.652Z,99050.36
2018-03-08T16:32:55.201Z,99062.49
2018-03-08T16:35:23.938Z,99067.39
2018-03-08T16:37:52.545Z,99076.39
2018-03-08T16:40:21.089Z,99085.39
2018-03-08T16:42:50.076Z,99094.37
2018-03-08T16:45:19.525Z,99094.70
2018-03-08T16:47:48.210Z,99107.98
2018-03-08T16:50:16.997Z,99108.85
2018-03-08T16:52:45.544Z,99117.83
2018-03-08T16:55:14.093Z,99127.13
2018-03-08T16:57:43.482Z,99124.66
2018-03-08T17:00:12.200Z,99127.31
2018-03-08T17:02:41.513Z,99134.65
2018-03-08T17:05:10.226Z,99140.86
2018-03-08T17:07:38.796Z,99141.60
2018-03-08T17:10:07.427Z,99146.87
2018-03-08T17:12:36.540Z,99153.05
2018-03-08T17:15:05.212Z,99162.55
2018-03-08T17:17:33.942Z,99163.73
2018-03-08T17:20:02.837Z,99174.26
2018-03-08T17:22:31.524Z,99183.68
2018-03-08T17:25:00.222Z,99190.27
2018-03-08T17:27:28.997Z,99204.68
2018-03-08T17:29:57.679Z,99201.41
2018-03-08T17:32:26.331Z,99199.16
2018-03-08T17:34:55.200Z,99208.20
2018-03-08T17:37:24.663Z,99215.50
2018-03-08T17:39:53.344Z,99222.63
2018-03-08T17:42:22.208Z,99230.00
2018-03-08T17:44:50.872Z,99229.11
2018-03-08T17:47:20.326Z,99223.95
2018-03-08T17:49:49.309Z,99230.27
2018-03-08T17:52:18.000Z,99228.94
2018-03-08T17:54:46.687Z,99238.41
2018-03-08T17:57:15.636Z,99235.12
2018-03-08T17:59:44.366Z,99231.66
2018-03-08T18:02:13.765Z,99227.91
2018-03-08T18:04:42.518Z,99229.89
2018-03-08T18:07:11.247Z,99239.18
2018-03-08T18:09:39.934Z,99245.83
2018-03-08T18:12:08.926Z,99246.80
2018-03-08T18:14:37.611Z,99256.50
2018-03-08T18:17:06.297Z,99260.46
2018-03-08T18:19:35.081Z,99268.80
2018-03-08T18:22:03.768Z,99279.95
2018-03-08T18:24:32.409Z,99283.13
2018-03-08T18:27:01.348Z,99284.05
2018-03-08T18:29:30.131Z,99298.30
2018-03-08T18:31:58.716Z,99304.46
2018-03-08T18:34:27.781Z,99305.69
2018-03-08T18:36:56.497Z,99314.94
2018-03-08T18:39:25.182Z,99320.84
2018-03-08T18:41:53.977Z,99322.86
2018-03-08T18:44:22.550Z,99334.91
2018-03-08T18:46:51.097Z,99336.14
2018-03-08T18:49:19.693Z,99345.59
2018-03-08T18:51:48.244Z,99352.17
2018-03-08T18:54:16.792Z,99359.29
2018-03-08T18:56:46.159Z,99367.83
2018-03-08T18:59:14.749Z,99366.64
2018-03-08T19:01:43.340Z,99374.08
2018-03-08T19:04:12.729Z,99375.37
2018-03-08T19:06:41.282Z,99383.37
2018-03-08T19:09:09.833Z,99388.16
2018-03-08T19:11:39.348Z,99386.55
2018-03-08T19:14:07.897Z,99390.68
2018-03-08T19:16:36.464Z,99395.34
2018-03-08T19:19:05.349Z,99392.41
2018-03-08T19:21:33.909Z,99399.79
2018-03-08T19:24:02.461Z,99406.02
2018-03-08T19:26:31.824Z,99405.75
2018-03-08T19:29:00.394Z,99413.97
2018-03-08T19:31:28.942Z,99420.59
2018-03-08T19:33:57.870Z,99425.41
2018-03-08T19:36:26.417Z,99425.80
2018-03-08T19:38:54.986Z,99418.39
2018-03-08T19:41:24.498Z,99432.50
2018-03-08T19:43:53.048Z,99433.62
2018-03-08T19:46:21.597Z,99433.62
2018-03-08T19:48:50.195Z,99440.52
2018-03-08T19:51:18.744Z,99450.48
2018-03-08T19:53:47.289Z,99450.69
2018-03-08T19:56:16.657Z,99450.59
2018-03-08T19:58:45.210Z,99458.42
2018-03-08T20:01:13.761Z,99459.58
2018-03-08T20:03:43.322Z,99465.84
2018-03-08T20:06:11.873Z,99470.34
2018-03-08T20:08:40.444Z,99469.48
2018-03-08T20:11:09.818Z,99474.90
2018-03-08T20:13:38.369Z,99480.52
2018-03-08T20:16:06.955Z,99480.76
2018-03-08T20:18:35.712Z,99481.81
2018-03-08T20:21:04.272Z,99489.27
2018-03-08T20:23:32.832Z,99494.80
2018-03-08T20:26:02.293Z,99492.13
2018-03-08T20:28:30.840Z,99492.94
2018-03-08T20:30:59.392Z,99497.72
2018-03-08T20:33:27.985Z,99501.91
2018-03-08T20:35:57.298Z,99501.98
2018-03-08T20:38:25.849Z,99507.40
2018-03-08T20:40:54.611Z,99511.47
2018-03-08T20:43:23.170Z,99511.91
2018-03-08T20:45:51.778Z,99524.02
2018-03-08T20:48:20.368Z,99533.81
2018-03-08T20:50:48.912Z,99536.32
2018-03-08T20:53:17.458Z,99545.97
2018-03-08T20:55:47.044Z,99549.90
2018-03-08T20:58:15.615Z,99553.84
2018-03-08T21:00:44.189Z,99554.13
2018-03-08T21:03:12.925Z,99563.38
2018-03-08T21:05:41.474Z,99555.12
2018-03-08T21:08:10.016Z,99561.15
2018-03-08T21:10:38.612Z,99558.27
2018-03-08T21:13:07.171Z,99557.77
2018-03-08T21:15:35.729Z,99560.63
2018-03-08T21:18:04.365Z,99567.28
2018-03-08T21:20:32.913Z,99567.19
2018-03-08T21:23:02.224Z,99565.66
2018-03-08T21:25:31.688Z,99565.41
2018-03-08T21:28:01.004Z,99568.12
2018-03-08T21:30:29.561Z,99573.70
2018-03-08T21:32:58.347Z,99581.91
2018-03-08T21:35:26.893Z,99587.16
2018-03-08T21:37:55.440Z,99587.34
2018-03-08T21:40:24.043Z,99587.95
2018-03-08T21:42:53.353Z,99591.99
2018-03-08T21:45:21.906Z,99591.50
2018-03-08T21:47:50.771Z,99594.09
2018-03-08T21:50:20.086Z,99600.94
2018-03-08T21:52:48.637Z,99601.75
2018-03-08T21:55:17.232Z,99603.41
2018-03-08T21:57:45.776Z,99607.80
2018-03-08T22:00:14.325Z,99607.84
2018-03-08T22:02:42.924Z,99613.86
2018-03-08T22:05:12.240Z,99615.23
2018-03-08T22:07:41.552Z,99608.34
2018-03-08T22:10:10.248Z,99614.46
2018-03-08T22:12:38.801Z,99620.04
2018-03-08T22:15:08.111Z,99610.70
2018-03-08T22:17:36.737Z,99612.30
2018-03-08T22:20:05.325Z,99625.95
2018-03-08T22:22:33.873Z,99618.75
2018-03-08T22:25:02.472Z,99617.06
2018-03-08T22:27:31.031Z,99620.17
2018-03-08T22:29:59.620Z,99621.78
2018-03-08T22:32:28.224Z,99617.15
2018-03-08T22:34:56.776Z,99625.39
2018-03-08T22:37:26.093Z,99623.77
2018-03-08T22:39:54.702Z,99626.47
2018-03-08T22:42:23.245Z,99630.09
2018-03-08T22:44:51.793Z,99627.81
2018-03-08T22:47:20.389Z,99625.14
2018-03-08T22:49:49.708Z,99631.79
2018-03-08T22:52:19.021Z,99627.25
2018-03-08T22:54:47.889Z,99627.06
2018-03-08T22:57:17.200Z,99625.59
2018-03-08T22:59:46.513Z,99628.86
2018-03-08T23:02:16.036Z,99633.80
2018-03-08T23:04:44.593Z,99638.69
2018-03-08T23:07:13.144Z,99639.19
2018-03-08T23:09:41.833Z,99647.43
2018-03-08T23:12:10.382Z,99650.23
2018-03-08T23:14:38.924Z,99645.84
2018-03-08T23:17:08.464Z,99656.96
2018-03-08T23:19:37.010Z,99656.91
2018-03-08T23:22:05.646Z,99663.33
2018-03-08T23:24:34.620Z,99664.89
2018-03-08T23:27:03.192Z,99664.98
2018-03-08T23:29:31.736Z,99671.69
2018-03-08T23:32:01.410Z,99671.63
2018-03-08T23:34:29.957Z,99674.41
2018-03-08T23:36:58.508Z,99676.86
2018-03-08T23:39:27.104Z,99680.27
2018-03-08T23:41:55.847Z,99677.98
2018-03-08T23:44:24.400Z,99682.98
2018-03-08T23:46:53.001Z,99697.41
2018-03-08T23:49:21.548Z,99696.77
2018-03-08T23:51:50.859Z,99691.60
2018-03-08T23:54:19.445Z,99698.14
2018-03-08T23:56:47.984Z,99698.86
2018-03-08T23:59:16.537Z,99697.50
